Time;durP1;ratioP1;P1;durP2;ratioP2;P2;SDS_P1;SDS_P2;PMS_P1;PMS_P2;Temp;Humidity;BMP_temperature;BMP_pressure;BME280_temperature;BME280_humidity;BME280_pressure;Samples;Min_cycle;Max_cycle;Signal;HPM_P1;HPM_P2
2023/07/04 00:01:04;;;;;;;13.75;6.90;;;;;;;;;;2528830;23;20017;-70
2023/07/04 00:02:25;;;;;;;16.65;7.68;;;;;;;;;;2531112;23;20348;-71
2023/07/04 00:03:50;;;;;;;13.68;7.75;;;;;;;;;;2518464;23;20022;-70
2023/07/04 00:05:11;;;;;;;16.45;7.45;;;;;;;;;;2527742;23;20014;-70
2023/07/04 00:06:32;;;;;;;23.20;8.82;;;;;;;;;;2526852;23;20024;-70
2023/07/04 00:07:53;;;;;;;18.42;8.10;;;;;;;;;;2529411;23;20018;-69
2023/07/04 00:09:14;;;;;;;20.02;8.95;;;;;;;;;;2530172;23;20439;-70
2023/07/04 00:10:36;;;;;;;19.33;7.20;;;;;;;;;;2529715;23;20096;-70
2023/07/04 00:11:58;;;;;;;14.13;6.82;;;;;;;;;;2529090;23;20069;-70
2023/07/04 00:13:19;;;;;;;24.88;8.50;;;;;;;;;;2515642;23;20010;-69
2023/07/04 00:14:41;;;;;;;15.95;7.00;;;;;;;;;;2524741;23;20456;-69
2023/07/04 00:16:05;;;;;;;17.73;7.18;;;;;;;;;;2529289;23;20017;-70
2023/07/04 00:17:26;;;;;;;19.92;8.25;;;;;;;;;;2515108;23;20089;-69
2023/07/04 00:18:47;;;;;;;12.50;7.15;;;;;;;;;;2513872;23;20010;-70
2023/07/04 00:20:09;;;;;;;13.50;6.28;;;;;;;;;;2525186;23;20025;-70
2023/07/04 00:21:30;;;;;;;10.45;5.82;;;;;;;;;;2530685;23;20010;-70
2023/07/04 00:22:50;;;;;;;18.48;7.97;;;;;;;;;;2529427;23;20041;-70
2023/07/04 00:24:11;;;;;;;20.10;8.38;;;;;;;;;;2530271;23;20009;-70
2023/07/04 00:25:33;;;;;;;15.82;6.72;;;;;;;;;;2516514;23;20006;-71
2023/07/04 00:26:56;;;;;;;15.60;6.90;;;;;;;;;;2526115;23;20021;-69
2023/07/04 00:28:17;;;;;;;13.73;6.82;;;;;;;;;;2531573;23;20293;-69
2023/07/04 00:29:38;;;;;;;14.15;7.38;;;;;;;;;;2530354;23;20014;-69
2023/07/04 00:31:02;;;;;;;15.18;6.63;;;;;;;;;;2532620;23;20014;-69
2023/07/04 00:32:23;;;;;;;13.93;7.00;;;;;;;;;;2517566;23;20014;-69
2023/07/04 00:33:45;;;;;;;17.50;8.20;;;;;;;;;;2511678;23;20370;-70
2023/07/04 00:35:06;;;;;;;12.93;6.18;;;;;;;;;;2525028;23;20013;-69
2023/07/04 00:36:29;;;;;;;13.05;5.68;;;;;;;;;;2528704;23;20112;-70
2023/07/04 00:37:50;;;;;;;9.52;6.18;;;;;;;;;;2530774;23;20014;-70
2023/07/04 00:39:11;;;;;;;14.07;6.63;;;;;;;;;;2518028;23;20010;-70
2023/07/04 00:40:31;;;;;;;15.43;6.82;;;;;;;;;;2524953;23;20019;-70
2023/07/04 00:41:52;;;;;;;14.38;7.55;;;;;;;;;;2529854;23;20014;-70
2023/07/04 00:43:15;;;;;;;13.07;5.65;;;;;;;;;;2531428;23;20013;-70
2023/07/04 00:44:37;;;;;;;12.93;7.20;;;;;;;;;;2532675;23;20014;-69
2023/07/04 00:45:58;;;;;;;;;;;;;;;;;;2531646;23;20006;-70
2023/07/04 00:47:22;;;;;;;14.18;6.32;;;;;;;;;;2530559;23;20191;-70
2023/07/04 00:48:44;;;;;;;13.93;6.40;;;;;;;;;;2518743;23;20330;-70
2023/07/04 00:50:07;;;;;;;13.68;6.13;;;;;;;;;;2515365;23;20018;-69
2023/07/04 00:51:31;;;;;;;15.07;7.00;;;;;;;;;;2526280;23;20021;-69
2023/07/04 00:52:53;;;;;;;14.98;6.18;;;;;;;;;;2530730;23;20059;-70
2023/07/04 00:54:15;;;;;;;;;;;;;;;;;;2531621;23;20014;-69
2023/07/04 00:55:39;;;;;;;13.18;7.30;;;;;;;;;;2529362;23;19904;-70
2023/07/04 00:57:06;;;;;;;16.02;6.28;;;;;;;;;;2530438;23;20014;-69
2023/07/04 00:58:31;;;;;;;8.77;6.20;;;;;;;;;;2531427;23;20010;-70
2023/07/04 00:59:57;;;;;;;12.88;6.13;;;;;;;;;;2533055;23;20090;-69
2023/07/04 03:28:02;;;;;;;21.20;9.10;;;;;;;;;;2548884;23;20033;-88
2023/07/04 03:29:23;;;;;;;25.77;8.65;;;;;;;;;;2544386;23;20028;-91
2023/07/04 03:30:57;;;;;;;27.48;9.38;;;;;;;;;;2540712;23;20009;-91
2023/07/04 03:32:50;;;;;;;21.67;7.72;;;;;;;;;;2539255;23;20017;-91
2023/07/04 03:36:18;;;;;;;22.20;8.82;;;;;;;;;;2539073;23;20508;-91
2023/07/04 03:37:40;;;;;;;21.20;8.95;;;;;;;;;;2542865;23;20064;-92
2023/07/04 03:39:19;;;;;;;25.52;8.60;;;;;;;;;;2539801;23;20005;-91
2023/07/04 03:40:50;;;;;;;;;;;;;;;;;;;;;
2023/07/04 03:42:12;;;;;;;22.83;9.02;;;;;;;;;;2554727;23;20009;-91
2023/07/04 03:43:35;;;;;;;24.63;9.13;;;;;;;;;;2543597;23;20005;-89
2023/07/04 03:45:05;;;;;;;22.30;8.32;;;;;;;;;;2538701;23;20136;-89
2023/07/04 03:46:34;;;;;;;23.75;8.70;;;;;;;;;;2540827;23;20085;-88
2023/07/04 03:48:13;;;;;;;33.55;11.27;;;;;;;;;;2537609;23;20024;-91
2023/07/04 03:49:47;;;;;;;18.23;7.78;;;;;;;;;;2542226;23;20006;-89
2023/07/04 03:51:09;;;;;;;22.00;9.35;;;;;;;;;;2542039;23;20346;-89
2023/07/04 03:52:32;;;;;;;22.17;8.02;;;;;;;;;;2543153;23;20451;-89
2023/07/04 03:55:57;;;;;;;34.50;11.88;;;;;;;;;;2524478;23;20018;-89
2023/07/04 04:01:06;;;;;;;26.10;9.45;;;;;;;;;;2562343;23;20017;-95
2023/07/04 04:02:33;;;;;;;25.77;11.05;;;;;;;;;;2546733;23;20473;-95
2023/07/04 04:04:23;;;;;;;18.73;8.20;;;;;;;;;;2544717;23;20010;-96
2023/07/04 04:06:10;;;;;;;24.35;10.00;;;;;;;;;;2551287;23;20017;-96
2023/07/04 04:09:34;;;;;;;24.83;8.98;;;;;;;;;;2561125;23;20001;-96
2023/07/04 04:11:04;;;;;;;21.00;9.38;;;;;;;;;;2550394;23;20013;-96
2023/07/04 04:12:26;;;;;;;24.95;9.57;;;;;;;;;;2544560;23;20017;-95
2023/07/04 04:13:50;;;;;;;25.37;9.40;;;;;;;;;;2545814;23;20033;-96
2023/07/04 04:15:26;;;;;;;;;;;;;;;;;;;;;
2023/07/04 04:22:27;;;;;;;19.25;9.05;;;;;;;;;;2525647;23;20018;-96
2023/07/04 04:28:55;;;;;;;21.50;9.63;;;;;;;;;;2498124;23;20018;-96
2023/07/04 04:30:34;;;;;;;;;;;;;;;;;;;;;
2023/07/04 04:31:55;;;;;;;35.05;11.75;;;;;;;;;;2499606;23;20026;-96
2023/07/04 04:35:29;;;;;;;28.58;10.55;;;;;;;;;;2521660;23;20396;-95
2023/07/04 04:36:56;;;;;;;27.45;9.90;;;;;;;;;;2508998;23;20014;-89
2023/07/04 04:38:54;;;;;;;34.15;11.05;;;;;;;;;;2469993;23;20020;-89
2023/07/04 04:40:31;;;;;;;48.00;14.38;;;;;;;;;;2477348;23;20020;-89
2023/07/04 04:42:00;;;;;;;24.88;8.85;;;;;;;;;;2492515;23;20089;-89
2023/07/04 04:43:42;;;;;;;23.33;8.73;;;;;;;;;;2517892;23;20372;-89
2023/07/04 04:45:03;;;;;;;27.20;10.65;;;;;;;;;;2520005;23;20014;-90
2023/07/04 04:46:27;;;;;;;21.65;10.02;;;;;;;;;;2516898;23;20010;-89
2023/07/04 04:47:57;;;;;;;45.03;17.27;;;;;;;;;;2492938;23;20134;-90
2023/07/04 04:49:52;;;;;;;24.05;8.60;;;;;;;;;;2516410;23;20105;-89
2023/07/04 04:51:18;;;;;;;20.33;8.30;;;;;;;;;;2516267;23;20006;-89
2023/07/04 04:52:46;;;;;;;20.25;8.52;;;;;;;;;;2519088;23;20014;-89
2023/07/04 04:54:25;;;;;;;29.27;10.77;;;;;;;;;;2517087;23;20010;-89
2023/07/04 04:55:47;;;;;;;21.02;10.57;;;;;;;;;;2519571;23;20011;-90
2023/07/04 04:57:13;;;;;;;29.67;11.15;;;;;;;;;;2501905;23;20011;-89
2023/07/04 04:58:37;;;;;;;25.20;10.02;;;;;;;;;;2496248;23;20027;-90
2023/07/04 05:00:01;;;;;;;27.73;9.07;;;;;;;;;;2493419;23;20011;-89
2023/07/04 05:01:26;;;;;;;30.60;10.75;;;;;;;;;;2494098;23;20389;-89
2023/07/04 05:02:50;;;;;;;32.90;10.68;;;;;;;;;;2496805;23;20015;-89
2023/07/04 05:08:25;;;;;;;28.73;10.32;;;;;;;;;;2462946;23;20039;-96
2023/07/04 05:10:02;;;;;;;41.45;10.98;;;;;;;;;;2468344;23;20096;-96
2023/07/04 05:11:33;;;;;;;30.83;10.95;;;;;;;;;;2499466;23;20067;-96
2023/07/04 05:13:14;;;;;;;25.25;9.32;;;;;;;;;;2499665;23;20071;-96
2023/07/04 05:15:03;;;;;;;26.75;10.23;;;;;;;;;;2486402;23;20022;-95
2023/07/04 05:17:02;;;;;;;27.83;10.95;;;;;;;;;;2479627;23;20004;-96
2023/07/04 05:18:26;;;;;;;28.45;10.05;;;;;;;;;;2454300;24;20017;-96
2023/07/04 06:58:04;;;;;;;19.90;8.90;;;;;;;;;;2534936;23;20309;-90
2023/07/04 06:59:34;;;;;;;25.00;8.68;;;;;;;;;;2493144;23;20057;-90
2023/07/04 07:01:02;;;;;;;20.25;8.00;;;;;;;;;;2520337;23;20164;-91
2023/07/04 07:02:28;;;;;;;20.15;7.70;;;;;;;;;;2519112;23;20285;-90
2023/07/04 07:03:58;;;;;;;21.63;8.57;;;;;;;;;;2517958;23;20021;-90
2023/07/04 07:05:27;;;;;;;20.42;8.50;;;;;;;;;;2521922;23;20037;-90
2023/07/04 07:06:57;;;;;;;21.10;7.07;;;;;;;;;;2519818;23;20011;-90
2023/07/04 07:08:19;;;;;;;25.10;7.53;;;;;;;;;;2520961;23;20014;-90
2023/07/04 07:09:48;;;;;;;28.48;9.98;;;;;;;;;;2504233;23;20102;-90
2023/07/04 07:11:22;;;;;;;;;;;;;;;;;;;;;
2023/07/04 07:12:43;;;;;;;30.90;11.82;;;;;;;;;;2485757;23;20020;-90
2023/07/04 07:14:13;;;;;;;21.48;7.65;;;;;;;;;;2519779;23;20352;-91
2023/07/04 07:15:48;;;;;;;;;;;;;;;;;;;;;
2023/07/04 07:17:11;;;;;;;20.63;8.38;;;;;;;;;;2533784;23;20393;-90
2023/07/04 07:18:34;;;;;;;21.40;8.52;;;;;;;;;;2522311;23;20420;-88
2023/07/04 07:19:59;;;;;;;18.08;9.18;;;;;;;;;;2518936;23;20022;-89
2023/07/04 07:21:27;;;;;;;23.45;8.27;;;;;;;;;;2521788;23;20029;-90
2023/07/04 07:23:09;;;;;;;23.55;9.55;;;;;;;;;;2517401;23;20014;-90
2023/07/04 07:24:33;;;;;;;20.58;7.30;;;;;;;;;;2522765;23;20015;-90
2023/07/04 07:25:57;;;;;;;21.15;8.35;;;;;;;;;;2519263;23;20021;-90
2023/07/04 07:27:58;;;;;;;;;;;;;;;;;;;;;
2023/07/04 07:33:58;;;;;;;21.15;9.00;;;;;;;;;;2512738;23;20025;-92
2023/07/04 07:35:23;;;;;;;18.27;7.93;;;;;;;;;;2503492;23;20015;-90
2023/07/04 07:37:24;;;;;;;21.15;8.70;;;;;;;;;;2506563;23;20015;-91
2023/07/04 07:38:48;;;;;;;27.17;10.60;;;;;;;;;;2472317;23;20128;-90
2023/07/04 07:40:12;;;;;;;17.88;8.00;;;;;;;;;;2484110;23;20031;-90
2023/07/04 07:41:44;;;;;;;22.27;9.80;;;;;;;;;;2494591;23;20027;-90
2023/07/04 07:43:10;;;;;;;29.83;9.23;;;;;;;;;;2495010;23;20027;-90
2023/07/04 07:44:51;;;;;;;16.67;7.65;;;;;;;;;;2494616;23;20413;-90
2023/07/04 07:46:13;;;;;;;17.38;7.50;;;;;;;;;;2486128;23;20067;-91
2023/07/04 07:47:34;;;;;;;;;;;;;;;;;;2450620;23;20024;-90
2023/07/04 07:49:06;;;;;;;21.67;8.82;;;;;;;;;;2450500;24;19908;-89
2023/07/04 07:50:48;;;;;;;21.80;8.88;;;;;;;;;;2415538;24;20029;-90
2023/07/04 07:55:27;;;;;;;15.77;7.20;;;;;;;;;;2411991;24;20047;-90
2023/07/04 07:57:00;;;;;;;21.02;7.93;;;;;;;;;;2417898;24;20087;-90
2023/07/04 07:58:10;;;;;;;25.45;9.55;;;;;;;;;;2417995;24;20425;-90
2023/07/04 07:59:56;;;;;;;19.40;7.85;;;;;;;;;;2473200;24;20016;-90
2023/07/04 08:01:30;;;;;;;19.25;7.70;;;;;;;;;;2460308;24;20025;-90
2023/07/04 08:02:54;;;;;;;17.75;7.63;;;;;;;;;;2462337;24;20067;-90
2023/07/04 08:13:20;;;;;;;;;;;;;;;;;;;;;
2023/07/04 08:15:14;;;;;;;22.63;7.03;;;;;;;;;;2427932;24;20010;-90
2023/07/04 08:17:12;;;;;;;;;;;;;;;;;;;;;
2023/07/04 08:23:10;;;;;;;19.08;6.47;;;;;;;;;;2393899;24;20043;-96
2023/07/04 08:35:52;;;;;;;;;;;;;;;;;;;;;
2023/07/04 08:43:41;;;;;;;;;;;;;;;;;;;;;
2023/07/04 08:45:26;;;;;;;20.15;7.20;;;;;;;;;;2371993;24;20031;-96
2023/07/04 08:53:29;;;;;;;20.67;7.72;;;;;;;;;;2407973;24;20037;-96
2023/07/04 08:55:33;;;;;;;24.95;8.48;;;;;;;;;;2413562;24;20018;-96
2023/07/04 08:59:26;;;;;;;15.45;6.55;;;;;;;;;;2403605;24;20027;-96
2023/07/04 09:01:00;;;;;;;25.10;9.23;;;;;;;;;;2389999;24;20023;-96
2023/07/04 11:49:23;;;;;;;22.65;8.15;;;;;;;;;;2567470;23;20024;-96
2023/07/04 11:50:50;;;;;;;14.30;6.15;;;;;;;;;;2559125;23;20017;-96
2023/07/04 11:52:35;;;;;;;39.15;12.40;;;;;;;;;;2514337;23;20022;-96
2023/07/04 11:54:04;;;;;;;11.73;5.68;;;;;;;;;;2549149;23;20024;-95
2023/07/04 11:55:33;;;;;;;14.05;7.35;;;;;;;;;;2556478;23;20020;-96
2023/07/04 11:57:23;;;;;;;19.75;7.50;;;;;;;;;;2553752;23;20013;-96
2023/07/04 11:59:13;;;;;;;15.30;6.85;;;;;;;;;;2523623;23;20006;-96
2023/07/04 12:01:03;;;;;;;;;;;;;;;;;;;;;
2023/07/04 12:02:33;;;;;;;19.10;7.63;;;;;;;;;;2509827;23;20158;-96
2023/07/04 12:03:58;;;;;;;14.65;6.32;;;;;;;;;;2510324;23;19999;-96
2023/07/04 12:05:33;;;;;;;14.82;6.43;;;;;;;;;;2499424;23;20063;-96
2023/07/04 12:09:33;;;;;;;22.80;8.82;;;;;;;;;;2488789;23;20015;-96
2023/07/04 12:17:12;;;;;;;;;;;;;;;;;;;;;
2023/07/04 12:18:46;;;;;;;14.80;6.45;;;;;;;;;;2530361;23;20014;-96
2023/07/04 12:20:26;;;;;;;;;;;;;;;;;;;;;
2023/07/04 12:26:13;;;;;;;18.17;6.78;;;;;;;;;;2511196;23;20054;-96
2023/07/04 12:32:29;;;;;;;23.33;8.45;;;;;;;;;;2465096;23;20111;-96
2023/07/04 12:33:54;;;;;;;14.48;6.78;;;;;;;;;;2432752;24;20029;-96
2023/07/04 12:35:21;;;;;;;12.38;6.40;;;;;;;;;;2431574;24;20026;-96
2023/07/04 12:37:02;;;;;;;13.63;6.18;;;;;;;;;;2422476;24;20018;-96
2023/07/04 12:38:24;;;;;;;15.88;7.03;;;;;;;;;;2462917;24;20024;-96
2023/07/04 12:39:51;;;;;;;14.05;7.20;;;;;;;;;;2473018;24;20024;-96
2023/07/04 12:41:32;;;;;;;16.73;6.80;;;;;;;;;;2466191;23;20042;-96
2023/07/04 12:43:29;;;;;;;;;;;;;;;;;;;;;
2023/07/04 12:45:27;;;;;;;18.67;7.72;;;;;;;;;;2488591;23;20015;-96
2023/07/04 12:47:22;;;;;;;;;;;;;;;;;;;;;
2023/07/04 12:48:52;;;;;;;17.65;7.53;;;;;;;;;;2509739;23;20018;-96
2023/07/04 12:50:51;;;;;;;;;;;;;;;;;;;;;
2023/07/04 12:54:57;;;;;;;9.48;6.13;;;;;;;;;;2509480;23;20022;-96
2023/07/04 12:56:59;;;;;;;14.10;7.10;;;;;;;;;;2499416;23;20022;-96
2023/07/04 13:00:33;;;;;;;16.92;7.13;;;;;;;;;;2509995;23;20010;-96
2023/07/04 13:06:45;;;;;;;;;;;;;;;;;;;;;
2023/07/04 13:08:19;;;;;;;10.75;6.05;;;;;;;;;;2494828;23;20011;-95
2023/07/04 13:09:53;;;;;;;;;;;;;;;;;;;;;
2023/07/04 13:11:18;;;;;;;9.85;6.22;;;;;;;;;;2535090;23;20009;-95
2023/07/04 13:12:53;;;;;;;16.55;6.28;;;;;;;;;;2525004;23;20015;-95
2023/07/04 13:14:38;;;;;;;17.67;7.03;;;;;;;;;;2544613;23;20017;-96
2023/07/04 13:16:21;;;;;;;10.43;6.38;;;;;;;;;;2561985;23;20132;-96
2023/07/04 13:18:06;;;;;;;14.25;6.47;;;;;;;;;;2560358;23;20016;-96
2023/07/04 13:22:00;;;;;;;12.55;6.22;;;;;;;;;;2549463;23;20016;-95
2023/07/04 13:24:08;;;;;;;19.88;8.85;;;;;;;;;;2544096;23;20020;-95
2023/07/04 13:25:36;;;;;;;12.80;6.25;;;;;;;;;;2576021;23;20008;-96
2023/07/04 13:28:58;;;;;;;12.75;7.10;;;;;;;;;;2573277;23;20009;-95
2023/07/04 13:31:04;;;;;;;12.93;6.32;;;;;;;;;;2559863;23;20020;-96
2023/07/04 13:32:54;;;;;;;13.20;6.55;;;;;;;;;;2564067;23;20032;-95
2023/07/04 13:36:45;;;;;;;;;;;;;;;;;;;;;
2023/07/04 13:44:55;;;;;;;;;;;;;;;;;;;;;
2023/07/04 13:49:04;;;;;;;;;;;;;;;;;;;;;
2023/07/04 13:52:55;;;;;;;19.15;7.28;;;;;;;;;;2469393;23;20036;-96
2023/07/04 14:47:42;;;;;;;16.75;7.72;;;;;;;;;;2547636;23;20010;-94
2023/07/04 14:49:04;;;;;;;19.70;8.17;;;;;;;;;;2532613;23;20021;-94
2023/07/04 14:50:27;;;;;;;15.48;7.68;;;;;;;;;;2534993;23;20033;-94
2023/07/04 14:51:48;;;;;;;16.48;7.95;;;;;;;;;;2531644;23;20010;-94
2023/07/04 14:55:30;;;;;;;30.42;10.55;;;;;;;;;;2497738;23;20015;-95
2023/07/04 14:57:02;;;;;;;14.02;6.60;;;;;;;;;;2520840;23;20014;-95
2023/07/04 14:58:26;;;;;;;22.02;8.30;;;;;;;;;;2532128;23;20010;-95
2023/07/04 15:01:51;;;;;;;29.33;10.88;;;;;;;;;;2498639;23;20098;-94
2023/07/04 15:03:12;;;;;;;18.55;8.10;;;;;;;;;;2533571;23;20022;-95
2023/07/04 15:04:39;;;;;;;26.48;11.73;;;;;;;;;;2530435;23;20025;-95
2023/07/04 15:08:20;;;;;;;;;;;;;;;;;;;;;
2023/07/04 15:11:25;;;;;;;18.20;8.15;;;;;;;;;;2546355;23;20013;-95
2023/07/04 15:12:49;;;;;;;13.80;7.50;;;;;;;;;;2531602;23;20065;-95
2023/07/04 15:14:14;;;;;;;15.32;7.60;;;;;;;;;;2534660;23;20010;-95
2023/07/04 15:15:35;;;;;;;17.38;7.85;;;;;;;;;;2530942;23;20416;-95
2023/07/04 15:16:59;;;;;;;20.80;9.02;;;;;;;;;;2532399;23;20427;-95
2023/07/04 15:18:45;;;;;;;19.40;8.20;;;;;;;;;;2534332;23;20082;-95
2023/07/04 15:20:42;;;;;;;13.07;6.93;;;;;;;;;;2536015;23;20010;-96
2023/07/04 22:58:14;;;;;;;38.67;16.50;;;;;;;;;;2530079;23;20025;-93
2023/07/04 22:59:39;;;;;;;22.20;11.85;;;;;;;;;;2544724;23;20022;-94
2023/07/04 23:01:09;;;;;;;23.20;11.30;;;;;;;;;;2540134;23;20028;-94
2023/07/04 23:02:30;;;;;;;26.52;11.93;;;;;;;;;;2544307;23;20010;-94
2023/07/04 23:03:51;;;;;;;23.85;11.40;;;;;;;;;;2539111;23;20013;-94
2023/07/04 23:05:12;;;;;;;21.02;11.13;;;;;;;;;;2540346;23;20235;-93
2023/07/04 23:06:39;;;;;;;19.55;10.82;;;;;;;;;;2540865;23;20010;-93
2023/07/04 23:08:00;;;;;;;20.20;10.65;;;;;;;;;;2528452;23;20029;-91
2023/07/04 23:09:21;;;;;;;22.45;11.18;;;;;;;;;;2535628;23;20009;-95
2023/07/04 23:10:55;;;;;;;25.85;12.40;;;;;;;;;;2541780;23;20010;-95
2023/07/04 23:12:19;;;;;;;16.30;9.45;;;;;;;;;;2543061;23;20009;-96
2023/07/04 23:13:43;;;;;;;23.08;11.20;;;;;;;;;;2540520;23;20060;-95
2023/07/04 23:15:04;;;;;;;20.77;10.05;;;;;;;;;;2542865;23;20076;-95
2023/07/04 23:16:28;;;;;;;15.30;9.73;;;;;;;;;;2540934;23;20021;-94
2023/07/04 23:17:49;;;;;;;31.55;12.48;;;;;;;;;;2538126;23;20431;-95
2023/07/04 23:19:11;;;;;;;34.17;13.35;;;;;;;;;;2539400;23;20080;-94
2023/07/04 23:20:34;;;;;;;19.60;10.20;;;;;;;;;;2539501;23;20013;-94
2023/07/04 23:21:55;;;;;;;18.95;11.23;;;;;;;;;;2541020;23;20021;-94
2023/07/04 23:23:16;;;;;;;24.80;11.10;;;;;;;;;;2540077;23;20016;-93
2023/07/04 23:24:38;;;;;;;26.65;11.80;;;;;;;;;;2535069;23;20009;-95
2023/07/04 23:26:23;;;;;;;25.10;11.00;;;;;;;;;;2538519;23;20391;-94
2023/07/04 23:27:46;;;;;;;15.13;9.40;;;;;;;;;;2539945;23;20009;-94
2023/07/04 23:29:07;;;;;;;22.48;10.60;;;;;;;;;;2540201;23;20009;-92
2023/07/04 23:30:28;;;;;;;18.10;9.15;;;;;;;;;;2542173;23;20009;-92
2023/07/04 23:33:38;;;;;;;18.30;9.65;;;;;;;;;;2554275;23;20005;-92
2023/07/04 23:34:59;;;;;;;24.38;10.73;;;;;;;;;;2542322;23;20031;-92
2023/07/04 23:36:20;;;;;;;23.88;9.93;;;;;;;;;;2538360;23;20077;-93
2023/07/04 23:37:41;;;;;;;29.77;11.77;;;;;;;;;;2537311;23;20041;-92
2023/07/04 23:39:05;;;;;;;29.35;10.73;;;;;;;;;;2535372;23;20058;-91
2023/07/04 23:40:25;;;;;;;28.90;11.77;;;;;;;;;;2538140;23;20010;-92
2023/07/04 23:41:46;;;;;;;26.55;11.55;;;;;;;;;;2536061;23;20009;-93
2023/07/04 23:43:07;;;;;;;28.42;12.23;;;;;;;;;;2536110;23;20009;-92
2023/07/04 23:44:32;;;;;;;25.77;11.13;;;;;;;;;;2539789;23;20315;-91
2023/07/04 23:46:07;;;;;;;;;;;;;;;;;;;;;
2023/07/04 23:47:43;;;;;;;42.63;16.65;;;;;;;;;;2552401;23;20037;-92
2023/07/04 23:49:19;;;;;;;16.25;9.38;;;;;;;;;;2542396;23;20017;-93
2023/07/04 23:50:40;;;;;;;17.17;10.07;;;;;;;;;;2541997;23;20335;-93
2023/07/04 23:52:13;;;;;;;19.08;9.75;;;;;;;;;;2540855;23;20005;-92
2023/07/04 23:57:02;;;;;;;18.58;9.20;;;;;;;;;;2556298;23;20005;-93
2023/07/04 23:58:23;;;;;;;22.13;9.90;;;;;;;;;;2542037;23;20006;-92
2023/07/04 23:59:44;;;;;;;17.27;8.98;;;;;;;;;;2539084;23;20053;-93
